createdAt,value
2023-02-25T00:03:44.851Z,2.17
2023-02-25T00:08:50.536Z,2.95
2023-02-25T00:13:55.906Z,2.70
2023-02-25T00:19:00.128Z,2.97
2023-02-25T00:24:16.066Z,2.40
2023-02-25T00:29:20.901Z,3.20
2023-02-25T00:34:24.837Z,2.85
2023-02-25T00:39:42.707Z,3.42
2023-02-25T00:44:52.051Z,3.67
2023-02-25T00:49:55.848Z,3.88
2023-02-25T00:54:59.969Z,3.78
2023-02-25T01:00:10.542Z,3.90
2023-02-25T01:05:15.685Z,3.80
2023-02-25T01:10:19.858Z,4.07
2023-02-25T01:15:23.653Z,4.03
2023-02-25T01:20:30.673Z,2.67
2023-02-25T01:25:34.654Z,4.07
2023-02-25T01:30:39.281Z,4.22
2023-02-25T01:35:43.001Z,4.05
2023-02-25T01:40:48.088Z,4.95
2023-02-25T01:45:54.983Z,5.70
2023-02-25T01:51:11.561Z,4.47
2023-02-25T01:56:21.680Z,4.00
2023-02-25T02:06:38.714Z,4.30
2023-02-25T02:11:44.055Z,4.72
2023-02-25T02:17:15.217Z,4.88
2023-02-25T02:22:32.418Z,5.28
2023-02-25T02:27:52.982Z,5.32
2023-02-25T02:33:25.180Z,4.95
2023-02-25T02:38:55.278Z,5.35
2023-02-25T02:44:29.097Z,5.47
2023-02-25T02:49:55.911Z,5.53
2023-02-25T02:55:23.619Z,6.65
2023-02-25T03:00:36.771Z,7.30
2023-02-25T03:05:44.697Z,6.60
2023-02-25T03:10:49.933Z,6.50
2023-02-25T03:15:54.891Z,6.97
2023-02-25T03:21:02.934Z,6.10
2023-02-25T03:26:25.070Z,5.85
2023-02-25T03:31:40.555Z,4.82
2023-02-25T03:36:51.673Z,7.53
2023-02-25T03:41:58.561Z,6.10
2023-02-25T03:47:05.093Z,6.38
2023-02-25T03:52:15.239Z,7.32
2023-02-25T03:57:26.571Z,7.47
2023-02-25T04:02:34.313Z,7.13
2023-02-25T04:07:38.781Z,6.97
2023-02-25T04:12:43.341Z,6.95
2023-02-25T04:17:47.706Z,6.95
2023-02-25T04:22:51.760Z,7.32
2023-02-25T04:27:55.586Z,7.25
2023-02-25T04:32:59.499Z,7.22
2023-02-25T04:38:03.282Z,6.72
2023-02-25T04:43:07.307Z,7.05
2023-02-25T04:48:11.285Z,7.95
2023-02-25T04:53:15.216Z,7.72
2023-02-25T04:58:19.166Z,7.50
2023-02-25T05:03:22.985Z,6.43
2023-02-25T05:08:27.153Z,7.25
2023-02-25T05:13:31.157Z,7.80
2023-02-25T05:18:41.162Z,7.60
2023-02-25T05:23:46.570Z,7.88
2023-02-25T05:28:52.559Z,7.72
2023-02-25T05:33:56.521Z,7.95
2023-02-25T05:39:04.434Z,7.90
2023-02-25T05:44:08.634Z,8.33
2023-02-25T05:49:12.534Z,7.47
2023-02-25T05:54:17.341Z,8.07
2023-02-25T05:59:21.344Z,6.97
2023-02-25T06:04:25.097Z,7.88
2023-02-25T06:09:29.966Z,7.82
2023-02-25T06:14:33.823Z,7.78
2023-02-25T06:19:37.767Z,6.15
2023-02-25T06:24:41.730Z,7.00
2023-02-25T06:29:49.155Z,7.78
2023-02-25T06:34:53.737Z,8.35
2023-02-25T06:39:57.695Z,8.45
2023-02-25T06:45:01.701Z,7.70
2023-02-25T06:50:08.637Z,8.85
2023-02-25T06:55:12.644Z,7.78
2023-02-25T07:00:17.042Z,7.45
2023-02-25T07:05:21.031Z,8.88
2023-02-25T07:10:24.910Z,8.48
2023-02-25T07:15:28.952Z,7.53
2023-02-25T07:20:32.752Z,7.22
2023-02-25T07:25:38.954Z,8.07
2023-02-25T07:30:43.044Z,8.32
2023-02-25T07:35:48.028Z,7.60
2023-02-25T07:40:51.931Z,8.07
2023-02-25T07:45:58.376Z,7.95
2023-02-25T07:51:07.396Z,7.78
2023-02-25T07:56:12.656Z,7.85
2023-02-25T08:01:35.738Z,8.18
2023-02-25T08:06:42.697Z,7.93
2023-02-25T08:11:46.723Z,7.82
2023-02-25T08:16:51.795Z,8.07
2023-02-25T08:21:55.674Z,7.43
2023-02-25T08:26:59.762Z,7.57
2023-02-25T08:32:06.774Z,7.10
2023-02-25T08:37:14.812Z,7.78
2023-02-25T08:42:21.399Z,7.30
2023-02-25T08:47:25.077Z,8.10
2023-02-25T08:52:35.404Z,7.28
2023-02-25T08:57:39.484Z,7.53
2023-02-25T09:02:45.710Z,7.57
2023-02-25T09:07:49.633Z,7.88
2023-02-25T09:12:54.097Z,7.63
2023-02-25T09:17:58.066Z,8.57
2023-02-25T09:23:02.353Z,7.70
2023-02-25T09:28:06.280Z,9.30
2023-02-25T09:33:10.406Z,8.13
2023-02-25T09:38:14.338Z,6.45
2023-02-25T09:43:31.303Z,7.78
2023-02-25T09:48:46.418Z,7.40
2023-02-25T09:54:31.054Z,8.05
2023-02-25T09:59:36.321Z,6.95
2023-02-25T10:05:05.400Z,8.25
2023-02-25T10:10:27.345Z,8.60
2023-02-25T10:15:41.148Z,8.20
2023-02-25T10:21:33.179Z,8.00
2023-02-25T10:26:49.934Z,7.07
2023-02-25T10:31:56.911Z,7.35
2023-02-25T10:37:01.866Z,7.60
2023-02-25T10:42:05.824Z,7.85
2023-02-25T10:47:15.833Z,7.80
2023-02-25T10:52:20.698Z,8.30
2023-02-25T10:57:28.268Z,8.25
2023-02-25T11:02:41.656Z,8.77
2023-02-25T11:07:48.172Z,7.28
2023-02-25T11:13:00.393Z,8.15
2023-02-25T11:18:24.854Z,8.68
2023-02-25T11:23:40.801Z,8.55
2023-02-25T11:28:51.232Z,9.50
2023-02-25T11:34:02.745Z,9.20
2023-02-25T11:39:18.324Z,8.57
2023-02-25T11:44:46.380Z,9.65
2023-02-25T11:50:03.210Z,8.48
2023-02-25T11:55:31.471Z,8.38
2023-02-25T12:00:41.405Z,8.63
2023-02-25T12:05:53.429Z,9.18
2023-02-25T12:11:24.236Z,9.93
2023-02-25T12:16:53.913Z,8.18
2023-02-25T12:22:19.686Z,8.07
2023-02-25T12:27:41.473Z,9.20
2023-02-25T12:33:04.703Z,9.30
2023-02-25T12:38:32.907Z,8.85
2023-02-25T12:43:46.742Z,8.30
2023-02-25T12:49:16.482Z,9.25
2023-02-25T12:54:44.584Z,8.65
2023-02-25T12:59:57.091Z,8.93
2023-02-25T13:05:16.875Z,9.65
2023-02-25T13:10:55.086Z,10.98
2023-02-25T13:16:22.714Z,10.32
2023-02-25T13:21:52.642Z,10.70
2023-02-25T13:27:44.533Z,11.32
2023-02-25T13:33:19.457Z,10.07
2023-02-25T13:38:42.645Z,10.65
2023-02-25T13:44:07.725Z,9.40
2023-02-25T13:49:32.623Z,8.70
2023-02-25T13:54:57.854Z,8.85
2023-02-25T14:00:27.177Z,10.38
2023-02-25T14:05:54.082Z,9.00
2023-02-25T14:11:06.772Z,10.05
2023-02-25T14:16:28.440Z,12.63
2023-02-25T14:21:58.484Z,12.98
2023-02-25T14:27:26.621Z,13.25
2023-02-25T14:37:56.980Z,9.77
2023-02-25T14:43:19.620Z,9.98
2023-02-25T14:48:43.076Z,10.23
2023-02-25T14:54:08.475Z,8.65
2023-02-25T14:59:41.413Z,8.73
2023-02-25T15:05:09.117Z,9.15
2023-02-25T15:11:00.606Z,8.88
2023-02-25T15:16:14.200Z,8.05
2023-02-25T15:21:39.060Z,7.68
2023-02-25T15:26:46.680Z,8.25
2023-02-25T15:32:11.946Z,8.10
2023-02-25T15:37:24.580Z,8.43
2023-02-25T15:42:50.789Z,10.80
2023-02-25T15:48:29.541Z,14.88
2023-02-25T15:53:38.040Z,12.43
2023-02-25T15:58:58.348Z,8.88
2023-02-25T16:04:07.637Z,10.13
2023-02-25T16:09:19.065Z,8.52
2023-02-25T16:14:32.773Z,9.50
2023-02-25T16:19:40.812Z,8.70
2023-02-25T16:24:52.383Z,8.00
2023-02-25T16:30:09.655Z,9.68
2023-02-25T16:35:37.006Z,8.60
2023-02-25T16:40:43.731Z,9.03
2023-02-25T16:46:05.036Z,6.88
2023-02-25T16:51:19.064Z,7.70
2023-02-25T16:56:29.630Z,8.05
2023-02-25T17:01:36.053Z,6.97
2023-02-25T17:06:39.918Z,7.95
2023-02-25T17:11:43.893Z,9.00
2023-02-25T17:16:50.085Z,7.95
2023-02-25T17:21:59.724Z,8.18
2023-02-25T17:27:03.803Z,7.72
2023-02-25T17:32:33.983Z,7.95
2023-02-25T17:37:37.869Z,8.43
2023-02-25T17:42:41.763Z,8.65
2023-02-25T17:47:45.531Z,7.75
2023-02-25T17:52:50.757Z,7.57
2023-02-25T17:57:58.894Z,8.43
2023-02-25T18:03:22.134Z,9.00
2023-02-25T18:08:50.774Z,8.70
2023-02-25T18:13:55.718Z,7.97
2023-02-25T18:19:00.650Z,8.60
2023-02-25T18:24:06.805Z,8.25
2023-02-25T18:29:12.069Z,7.70
2023-02-25T18:34:15.842Z,7.28
2023-02-25T18:39:21.563Z,7.90
2023-02-25T18:44:25.414Z,7.82
2023-02-25T18:49:29.198Z,7.55
2023-02-25T18:54:33.200Z,5.65
2023-02-25T18:59:37.269Z,8.48
2023-02-25T19:04:41.172Z,7.70
2023-02-25T19:09:45.159Z,7.88
2023-02-25T19:14:56.298Z,7.93
2023-02-25T19:20:00.160Z,7.72
2023-02-25T19:25:03.869Z,6.40
2023-02-25T19:30:14.298Z,7.90
2023-02-25T19:35:18.389Z,9.48
2023-02-25T19:40:23.086Z,7.17
2023-02-25T19:45:28.071Z,6.60
2023-02-25T19:50:35.488Z,7.15
2023-02-25T19:55:39.688Z,8.23
2023-02-25T20:00:47.545Z,8.05
2023-02-25T20:05:52.945Z,6.88
2023-02-25T20:10:56.739Z,7.37
2023-02-25T20:16:02.288Z,6.93
2023-02-25T20:21:06.951Z,6.97
2023-02-25T20:26:16.064Z,7.07
2023-02-25T20:31:20.719Z,7.50
2023-02-25T20:36:28.278Z,7.97
2023-02-25T20:41:32.430Z,7.22
2023-02-25T20:46:37.592Z,7.93
2023-02-25T20:51:46.978Z,7.67
2023-02-25T20:56:51.842Z,7.30
2023-02-25T21:01:56.798Z,7.47
2023-02-25T21:07:02.015Z,7.07
2023-02-25T21:12:06.993Z,8.30
2023-02-25T21:17:14.265Z,9.43
2023-02-25T21:22:17.996Z,7.70
2023-02-25T21:27:23.695Z,7.80
2023-02-25T21:32:27.440Z,8.00
2023-02-25T21:37:31.993Z,7.37
2023-02-25T21:42:35.840Z,8.00
2023-02-25T21:47:39.675Z,6.60
2023-02-25T21:52:43.634Z,7.20
2023-02-25T21:57:47.437Z,7.60
2023-02-25T22:02:51.849Z,7.83
2023-02-25T22:07:55.634Z,7.83
2023-02-25T22:12:59.541Z,6.13
2023-02-25T22:18:05.071Z,8.23
2023-02-25T22:23:08.886Z,7.03
2023-02-25T22:28:12.830Z,6.17
2023-02-25T22:33:16.598Z,6.77
2023-02-25T22:38:20.578Z,6.43
2023-02-25T22:43:24.686Z,6.73
2023-02-25T22:48:28.565Z,6.03
2023-02-25T22:53:32.511Z,6.90
2023-02-25T22:58:39.595Z,5.40
2023-02-25T23:03:46.718Z,7.70
2023-02-25T23:08:51.433Z,4.85
2023-02-25T23:13:59.250Z,5.53
2023-02-25T23:19:05.380Z,6.77
2023-02-25T23:24:14.433Z,6.47
2023-02-25T23:29:18.412Z,6.77
2023-02-25T23:34:24.591Z,6.27
2023-02-25T23:39:28.746Z,6.13
2023-02-25T23:44:32.731Z,5.83
2023-02-25T23:49:36.491Z,6.83
2023-02-25T23:54:40.601Z,6.83
2023-02-25T23:59:44.438Z,6.47
